Time;durP1;ratioP1;P1;durP2;ratioP2;P2;SDS_P1;SDS_P2;PMS_P1;PMS_P2;Temp;Humidity;BMP_temperature;BMP_pressure;BME280_temperature;BME280_humidity;BME280_pressure;Samples;Min_cycle;Max_cycle;Signal;HPM_P1;HPM_P2
2022/07/17 00:00:42;;;;;;;7.07;2.77;;;;;;;;;;5051205;28;20101;-57
2022/07/17 00:03:08;;;;;;;8.53;2.67;;;;;;;;;;5051476;28;20049;-57
2022/07/17 00:05:34;;;;;;;9.37;2.67;;;;;;;;;;5051217;28;20045;-56
2022/07/17 00:08:00;;;;;;;8.43;3.13;;;;;;;;;;5051165;28;20041;-56
2022/07/17 00:10:27;;;;;;;8.63;3.53;;;;;;;;;;5050566;28;20554;-56
2022/07/17 00:12:53;;;;;;;7.33;3.00;;;;;;;;;;5050965;28;20048;-57
2022/07/17 00:15:19;;;;;;;8.17;3.00;;;;;;;;;;5050966;28;20495;-56
2022/07/17 00:17:45;;;;;;;10.60;2.90;;;;;;;;;;5051314;28;20053;-56
2022/07/17 00:20:11;;;;;;;13.13;3.57;;;;;;;;;;5050945;28;20052;-57
2022/07/17 00:22:37;;;;;;;9.77;2.60;;;;;;;;;;5050374;28;20052;-57
2022/07/17 00:25:04;;;;;;;6.90;2.67;;;;;;;;;;5051074;28;20045;-56
2022/07/17 00:27:30;;;;;;;10.17;3.23;;;;;;;;;;5050715;28;20882;-57
2022/07/17 00:29:56;;;;;;;6.80;3.23;;;;;;;;;;5050781;28;20085;-56
2022/07/17 00:32:23;;;;;;;4.83;2.23;;;;;;;;;;5050814;28;20086;-56
2022/07/17 00:34:50;;;;;;;11.13;3.00;;;;;;;;;;5050471;28;20049;-56
2022/07/17 00:37:16;;;;;;;6.57;2.37;;;;;;;;;;5050699;28;20453;-57
2022/07/17 00:39:42;;;;;;;7.80;2.97;;;;;;;;;;5050767;28;20088;-56
2022/07/17 00:42:12;;;;;;;5.43;3.10;;;;;;;;;;5050494;28;20072;-56
2022/07/17 00:44:40;;;;;;;6.93;3.20;;;;;;;;;;5050263;28;20055;-56
2022/07/17 00:47:10;;;;;;;11.47;4.23;;;;;;;;;;5050367;28;20080;-56
2022/07/17 00:49:36;;;;;;;11.67;3.90;;;;;;;;;;5050335;28;20099;-56
2022/07/17 00:52:02;;;;;;;11.73;3.77;;;;;;;;;;5050164;28;20037;-56
2022/07/17 00:54:28;;;;;;;9.60;4.07;;;;;;;;;;5049086;28;20067;-56
2022/07/17 00:56:55;;;;;;;11.43;3.90;;;;;;;;;;5048563;28;20052;-56
2022/07/17 00:59:21;;;;;;;8.47;4.40;;;;;;;;;;5049073;28;20053;-56
2022/07/17 01:01:47;;;;;;;11.13;4.17;;;;;;;;;;5049383;28;20037;-56
2022/07/17 01:04:13;;;;;;;8.57;3.57;;;;;;;;;;5049682;28;20045;-56
2022/07/17 01:06:39;;;;;;;7.73;3.60;;;;;;;;;;5049363;28;20120;-56
2022/07/17 01:09:05;;;;;;;8.20;3.63;;;;;;;;;;5048106;28;20132;-56
2022/07/17 01:11:32;;;;;;;11.10;4.00;;;;;;;;;;5048639;28;20041;-56
2022/07/17 01:13:58;;;;;;;11.67;3.97;;;;;;;;;;5047936;28;20499;-56
2022/07/17 01:16:24;;;;;;;12.30;4.97;;;;;;;;;;5048117;28;20040;-57
2022/07/17 01:18:50;;;;;;;12.13;4.10;;;;;;;;;;5047654;28;20168;-57
2022/07/17 01:21:16;;;;;;;8.97;4.23;;;;;;;;;;5047054;28;20041;-56
2022/07/17 01:23:43;;;;;;;7.47;3.43;;;;;;;;;;5048120;28;20045;-57
2022/07/17 01:26:09;;;;;;;9.70;4.30;;;;;;;;;;5049328;28;20131;-56
2022/07/17 01:28:35;;;;;;;16.20;4.63;;;;;;;;;;5049172;28;20084;-57
2022/07/17 01:31:03;;;;;;;10.77;4.77;;;;;;;;;;5049205;28;20040;-57
2022/07/17 01:33:29;;;;;;;12.87;5.00;;;;;;;;;;5049303;28;20098;-57
2022/07/17 01:35:55;;;;;;;11.87;4.30;;;;;;;;;;5049086;28;20052;-57
2022/07/17 01:38:21;;;;;;;13.83;4.83;;;;;;;;;;5049007;28;20044;-57
2022/07/17 01:40:47;;;;;;;11.30;5.00;;;;;;;;;;5048959;28;20037;-57
2022/07/17 01:43:13;;;;;;;14.70;5.70;;;;;;;;;;5048802;28;20049;-57
2022/07/17 01:45:40;;;;;;;7.47;4.20;;;;;;;;;;5049167;28;20068;-57
2022/07/17 01:48:06;;;;;;;9.13;5.10;;;;;;;;;;5048347;28;20041;-57
2022/07/17 01:50:32;;;;;;;9.03;5.27;;;;;;;;;;5049011;28;20447;-56
2022/07/17 01:52:58;;;;;;;10.63;4.67;;;;;;;;;;5048715;28;20466;-57
2022/07/17 01:55:24;;;;;;;11.33;4.47;;;;;;;;;;5048804;28;20103;-56
2022/07/17 01:57:50;;;;;;;13.07;5.10;;;;;;;;;;5048732;28;20415;-57
2022/07/17 02:00:18;;;;;;;11.00;4.47;;;;;;;;;;5048589;28;20155;-57
2022/07/17 02:02:45;;;;;;;11.30;4.70;;;;;;;;;;5048764;28;20052;-56
2022/07/17 02:05:11;;;;;;;11.23;4.20;;;;;;;;;;5048856;28;20055;-57
2022/07/17 02:07:39;;;;;;;9.63;4.33;;;;;;;;;;5048893;28;20057;-57
2022/07/17 02:10:06;;;;;;;10.10;4.03;;;;;;;;;;5048525;28;20080;-57
2022/07/17 02:12:32;;;;;;;9.30;3.80;;;;;;;;;;5048853;28;20051;-57
2022/07/17 02:14:58;;;;;;;7.90;3.20;;;;;;;;;;5047291;28;20045;-57
2022/07/17 02:17:24;;;;;;;8.67;3.93;;;;;;;;;;5048708;28;20135;-57
2022/07/17 02:19:50;;;;;;;5.87;3.33;;;;;;;;;;5048745;28;20380;-56
2022/07/17 02:22:16;;;;;;;6.73;3.33;;;;;;;;;;5048556;28;20534;-57
2022/07/17 02:24:43;;;;;;;13.77;4.07;;;;;;;;;;5048454;28;20503;-57
2022/07/17 02:27:09;;;;;;;7.60;3.97;;;;;;;;;;5048373;28;20575;-57
2022/07/17 02:29:35;;;;;;;8.73;3.33;;;;;;;;;;5047436;28;20041;-57
2022/07/17 02:32:01;;;;;;;7.23;3.37;;;;;;;;;;5048046;28;20037;-57
2022/07/17 02:34:27;;;;;;;8.03;3.67;;;;;;;;;;5048511;28;20041;-57
2022/07/17 02:36:53;;;;;;;15.77;3.33;;;;;;;;;;5048186;28;20518;-57
2022/07/17 02:39:19;;;;;;;6.37;3.53;;;;;;;;;;5048695;28;20041;-57
2022/07/17 02:41:45;;;;;;;4.67;3.23;;;;;;;;;;5048708;28;20048;-57
2022/07/17 02:44:11;;;;;;;8.73;3.53;;;;;;;;;;5048112;28;20057;-56
2022/07/17 02:46:37;;;;;;;6.10;3.20;;;;;;;;;;5048171;28;20053;-57
2022/07/17 02:49:03;;;;;;;9.97;3.40;;;;;;;;;;5048251;28;20090;-57
2022/07/17 02:51:29;;;;;;;8.37;3.90;;;;;;;;;;5048279;28;20044;-57
2022/07/17 02:53:55;;;;;;;8.03;3.60;;;;;;;;;;5048131;28;20083;-57
2022/07/17 02:56:21;;;;;;;11.67;2.70;;;;;;;;;;5048291;28;20406;-56
2022/07/17 02:58:47;;;;;;;10.37;3.33;;;;;;;;;;5047944;28;20407;-57
2022/07/17 03:01:13;;;;;;;10.90;4.30;;;;;;;;;;5048178;28;20049;-57
2022/07/17 03:03:40;;;;;;;9.97;4.07;;;;;;;;;;5048282;28;20091;-57
2022/07/17 03:06:06;;;;;;;7.53;3.40;;;;;;;;;;5048037;28;20095;-57
2022/07/17 03:08:32;;;;;;;6.90;3.33;;;;;;;;;;5048173;28;20063;-57
2022/07/17 03:10:58;;;;;;;7.23;4.10;;;;;;;;;;5047699;28;20046;-56
2022/07/17 03:13:24;;;;;;;7.83;4.20;;;;;;;;;;5048212;28;20605;-57
2022/07/17 03:15:50;;;;;;;8.37;3.97;;;;;;;;;;5048238;28;20059;-57
2022/07/17 03:18:16;;;;;;;12.50;4.30;;;;;;;;;;5046742;28;20581;-57
2022/07/17 03:20:42;;;;;;;8.13;4.03;;;;;;;;;;5048009;28;20041;-57
2022/07/17 03:23:08;;;;;;;9.33;4.13;;;;;;;;;;5047846;28;20041;-56
2022/07/17 03:25:34;;;;;;;8.23;4.03;;;;;;;;;;5047830;28;20433;-57
2022/07/17 03:28:00;;;;;;;7.13;3.97;;;;;;;;;;5047895;28;20059;-57
2022/07/17 03:30:27;;;;;;;9.23;4.53;;;;;;;;;;5047917;28;20756;-57
2022/07/17 03:32:53;;;;;;;11.30;5.60;;;;;;;;;;5047901;28;20045;-57
2022/07/17 03:35:19;;;;;;;12.70;3.97;;;;;;;;;;5047233;28;20048;-57
2022/07/17 03:37:45;;;;;;;12.13;4.67;;;;;;;;;;5047580;28;20045;-57
2022/07/17 03:40:11;;;;;;;13.13;5.20;;;;;;;;;;5047288;28;20041;-57
2022/07/17 03:42:37;;;;;;;12.37;4.93;;;;;;;;;;5046650;28;20124;-57
2022/07/17 03:45:04;;;;;;;13.83;5.20;;;;;;;;;;5048306;28;20049;-57
2022/07/17 03:47:30;;;;;;;10.77;5.03;;;;;;;;;;5051112;28;20049;-57
2022/07/17 03:49:56;;;;;;;8.40;4.43;;;;;;;;;;5050750;28;20045;-57
2022/07/17 03:52:22;;;;;;;10.77;4.50;;;;;;;;;;5050854;28;20091;-57
2022/07/17 03:54:48;;;;;;;10.63;5.37;;;;;;;;;;5050855;28;20427;-58
2022/07/17 03:57:14;;;;;;;11.80;4.97;;;;;;;;;;5050699;28;20478;-56
2022/07/17 03:59:40;;;;;;;10.83;5.67;;;;;;;;;;5050247;28;20090;-56
2022/07/17 04:02:06;;;;;;;10.87;5.37;;;;;;;;;;5050336;28;20144;-57
2022/07/17 04:04:32;;;;;;;12.80;5.10;;;;;;;;;;5050312;28;20419;-57
2022/07/17 04:06:58;;;;;;;12.10;5.33;;;;;;;;;;5050183;28;20045;-57
2022/07/17 04:09:24;;;;;;;10.17;5.97;;;;;;;;;;5050474;28;20045;-57
2022/07/17 04:11:50;;;;;;;6.10;3.40;;;;;;;;;;5050430;28;20072;-57
2022/07/17 04:14:16;;;;;;;8.87;4.10;;;;;;;;;;5050261;28;20126;-57
2022/07/17 04:16:42;;;;;;;10.93;4.80;;;;;;;;;;5050495;28;20096;-58
2022/07/17 04:19:08;;;;;;;7.53;3.67;;;;;;;;;;5050280;28;20037;-57
2022/07/17 04:21:34;;;;;;;9.97;5.17;;;;;;;;;;5050117;28;20514;-57
2022/07/17 04:24:00;;;;;;;11.53;5.00;;;;;;;;;;5049804;28;20041;-57
2022/07/17 04:26:27;;;;;;;10.10;4.43;;;;;;;;;;5049758;28;21088;-57
2022/07/17 04:28:53;;;;;;;8.80;4.07;;;;;;;;;;5049981;28;20049;-57
2022/07/17 04:31:19;;;;;;;12.40;4.40;;;;;;;;;;5049539;28;20182;-57
2022/07/17 04:33:45;;;;;;;9.23;4.70;;;;;;;;;;5049950;28;20051;-57
2022/07/17 04:36:11;;;;;;;7.30;3.60;;;;;;;;;;5049745;28;20057;-57
2022/07/17 04:38:37;;;;;;;12.57;4.50;;;;;;;;;;5049234;28;20052;-57
2022/07/17 04:41:03;;;;;;;6.63;4.00;;;;;;;;;;5049760;28;20038;-57
2022/07/17 04:43:29;;;;;;;7.90;3.90;;;;;;;;;;5049509;28;20143;-57
2022/07/17 04:45:56;;;;;;;7.60;4.07;;;;;;;;;;5049689;28;20064;-57
2022/07/17 04:48:22;;;;;;;8.13;3.80;;;;;;;;;;5049409;28;20136;-57
2022/07/17 04:50:48;;;;;;;10.10;4.33;;;;;;;;;;5049759;28;20037;-57
2022/07/17 04:53:14;;;;;;;7.33;3.63;;;;;;;;;;5049459;28;20045;-57
2022/07/17 04:55:40;;;;;;;9.57;4.23;;;;;;;;;;5048670;28;20041;-57
2022/07/17 04:58:06;;;;;;;8.20;3.80;;;;;;;;;;5048536;28;20052;-57
2022/07/17 05:00:35;;;;;;;8.57;4.03;;;;;;;;;;5049550;28;20110;-57
2022/07/17 05:03:01;;;;;;;8.97;4.10;;;;;;;;;;5049297;28;20515;-57
2022/07/17 05:05:27;;;;;;;8.27;4.07;;;;;;;;;;5049363;28;20047;-57
2022/07/17 05:07:53;;;;;;;11.20;5.50;;;;;;;;;;5049230;28;20487;-58
2022/07/17 05:10:19;;;;;;;11.40;4.17;;;;;;;;;;5049479;28;20041;-57
2022/07/17 05:12:45;;;;;;;8.23;4.07;;;;;;;;;;5049022;28;20428;-57
2022/07/17 05:15:11;;;;;;;6.13;3.80;;;;;;;;;;5058001;28;20711;-57
2022/07/17 05:17:37;;;;;;;7.27;3.77;;;;;;;;;;5057420;28;20055;-57
2022/07/17 05:20:04;;;;;;;8.97;3.73;;;;;;;;;;5059195;28;20040;-58
2022/07/17 05:22:30;;;;;;;7.07;3.97;;;;;;;;;;5057442;28;20407;-58
2022/07/17 05:24:56;;;;;;;8.53;4.10;;;;;;;;;;5062981;28;20050;-58
2022/07/17 05:27:22;;;;;;;12.23;4.67;;;;;;;;;;5057207;28;20048;-57
2022/07/17 05:29:48;;;;;;;7.23;4.10;;;;;;;;;;5059432;28;20080;-57
2022/07/17 05:32:14;;;;;;;8.60;4.63;;;;;;;;;;5048035;28;20638;-58
2022/07/17 05:34:40;;;;;;;9.93;4.70;;;;;;;;;;5049320;28;20406;-57
2022/07/17 05:37:06;;;;;;;7.70;4.27;;;;;;;;;;5049133;28;20045;-57
2022/07/17 05:39:32;;;;;;;11.93;4.33;;;;;;;;;;5049335;28;20095;-57
2022/07/17 05:41:58;;;;;;;5.23;3.57;;;;;;;;;;5048942;28;20411;-57
2022/07/17 05:44:24;;;;;;;8.00;4.37;;;;;;;;;;5049025;28;20053;-58
2022/07/17 05:46:50;;;;;;;9.93;4.30;;;;;;;;;;5049178;28;20033;-57
2022/07/17 05:49:16;;;;;;;8.13;4.10;;;;;;;;;;5048482;28;20041;-57
2022/07/17 05:51:42;;;;;;;9.10;4.17;;;;;;;;;;5048948;28;20410;-58
2022/07/17 05:54:08;;;;;;;11.70;4.30;;;;;;;;;;5049994;28;20048;-58
2022/07/17 05:56:34;;;;;;;9.07;4.57;;;;;;;;;;5057917;28;20044;-58
2022/07/17 05:59:00;;;;;;;6.03;3.40;;;;;;;;;;5059195;28;20419;-58
2022/07/17 06:01:26;;;;;;;7.47;3.67;;;;;;;;;;5056560;28;20590;-57
2022/07/17 06:03:52;;;;;;;5.77;3.30;;;;;;;;;;5068395;28;20043;-57
2022/07/17 06:06:18;;;;;;;8.97;3.70;;;;;;;;;;5067486;28;20043;-58
2022/07/17 06:08:44;;;;;;;9.10;3.70;;;;;;;;;;5065871;28;20084;-57
2022/07/17 06:11:11;;;;;;;9.30;3.70;;;;;;;;;;5065985;28;20075;-58
2022/07/17 06:13:36;;;;;;;5.63;3.30;;;;;;;;;;5066426;28;20052;-58
2022/07/17 06:16:03;;;;;;;7.80;3.30;;;;;;;;;;5065940;28;20043;-58
2022/07/17 06:18:29;;;;;;;7.40;2.83;;;;;;;;;;5066192;28;20047;-58
2022/07/17 06:20:55;;;;;;;8.70;2.70;;;;;;;;;;5066030;28;20044;-58
2022/07/17 06:23:21;;;;;;;7.13;2.50;;;;;;;;;;5066316;28;20095;-58
2022/07/17 06:25:47;;;;;;;7.13;3.00;;;;;;;;;;5067939;28;20040;-58
2022/07/17 06:28:13;;;;;;;8.90;2.93;;;;;;;;;;5066889;28;20442;-57
2022/07/17 06:30:39;;;;;;;10.60;2.60;;;;;;;;;;5067667;28;20482;-58
2022/07/17 06:33:05;;;;;;;5.43;2.87;;;;;;;;;;5067568;28;20051;-58
2022/07/17 06:35:33;;;;;;;4.13;2.17;;;;;;;;;;5067448;28;20232;-58
2022/07/17 06:37:59;;;;;;;7.20;2.17;;;;;;;;;;5067542;28;20048;-58
2022/07/17 06:40:25;;;;;;;6.97;2.60;;;;;;;;;;5067393;28;20048;-57
2022/07/17 06:42:52;;;;;;;8.07;2.00;;;;;;;;;;5066834;28;20056;-57
2022/07/17 06:45:18;;;;;;;10.00;1.73;;;;;;;;;;5067429;28;20072;-58
2022/07/17 06:47:44;;;;;;;8.07;1.40;;;;;;;;;;5067454;28;20486;-57
2022/07/17 06:50:10;;;;;;;11.03;1.70;;;;;;;;;;5067613;28;20048;-58
2022/07/17 06:52:36;;;;;;;5.87;1.43;;;;;;;;;;5066990;28;20045;-57
2022/07/17 06:55:03;;;;;;;6.07;1.40;;;;;;;;;;5067441;28;20040;-57
2022/07/17 06:57:29;;;;;;;4.17;1.10;;;;;;;;;;5067245;28;20495;-57
2022/07/17 06:59:55;;;;;;;6.43;1.10;;;;;;;;;;5067327;28;20084;-58
2022/07/17 07:02:21;;;;;;;6.17;1.40;;;;;;;;;;5067401;28;20044;-57
2022/07/17 07:04:47;;;;;;;8.30;1.40;;;;;;;;;;5066767;28;20159;-57
2022/07/17 07:07:13;;;;;;;6.53;1.13;;;;;;;;;;5066911;28;20135;-57
2022/07/17 07:09:39;;;;;;;7.20;1.40;;;;;;;;;;5067170;28;20087;-57
2022/07/17 07:12:05;;;;;;;7.93;1.77;;;;;;;;;;5067252;28;20076;-57
2022/07/17 07:14:31;;;;;;;4.47;1.00;;;;;;;;;;5066483;28;20056;-58
2022/07/17 07:16:57;;;;;;;5.77;1.70;;;;;;;;;;5067170;28;20040;-57
2022/07/17 07:19:23;;;;;;;6.77;1.50;;;;;;;;;;5067670;28;20367;-58
2022/07/17 07:21:49;;;;;;;8.00;2.40;;;;;;;;;;5071074;28;20098;-58
2022/07/17 07:24:15;;;;;;;5.73;1.20;;;;;;;;;;5070261;28;20311;-57
2022/07/17 07:26:41;;;;;;;8.03;1.00;;;;;;;;;;5071057;28;20053;-57
2022/07/17 07:29:07;;;;;;;7.10;1.10;;;;;;;;;;5070891;28;20132;-58
2022/07/17 07:31:33;;;;;;;8.97;1.30;;;;;;;;;;5070479;28;20530;-58
2022/07/17 07:33:59;;;;;;;3.57;0.97;;;;;;;;;;5070796;28;20097;-57
2022/07/17 07:36:25;;;;;;;6.07;1.30;;;;;;;;;;5070556;28;20131;-57
2022/07/17 07:38:51;;;;;;;6.60;1.60;;;;;;;;;;5070092;28;20160;-58
2022/07/17 07:41:17;;;;;;;8.73;1.80;;;;;;;;;;5070436;28;20131;-57
2022/07/17 07:43:43;;;;;;;5.23;1.47;;;;;;;;;;5070598;28;20638;-58
2022/07/17 07:46:09;;;;;;;7.23;1.67;;;;;;;;;;5070858;28;20049;-57
2022/07/17 07:48:35;;;;;;;5.77;2.00;;;;;;;;;;5069998;28;20109;-58
2022/07/17 07:51:01;;;;;;;9.70;1.60;;;;;;;;;;5070747;28;20478;-57
2022/07/17 07:53:28;;;;;;;6.80;1.27;;;;;;;;;;5070468;28;20414;-57
2022/07/17 07:55:54;;;;;;;4.33;1.33;;;;;;;;;;5069678;28;20529;-60
2022/07/17 07:58:20;;;;;;;7.40;1.53;;;;;;;;;;5070130;28;20051;-57
2022/07/17 08:00:46;;;;;;;8.03;1.20;;;;;;;;;;5070609;28;20044;-58
2022/07/17 08:03:12;;;;;;;3.67;0.93;;;;;;;;;;5069956;28;20131;-58
2022/07/17 08:05:38;;;;;;;6.40;1.40;;;;;;;;;;5069907;28;20045;-57
2022/07/17 08:08:05;;;;;;;5.57;1.00;;;;;;;;;;5070226;28;20044;-57
2022/07/17 08:10:31;;;;;;;4.70;1.00;;;;;;;;;;5070032;28;20655;-58
2022/07/17 08:12:57;;;;;;;4.43;0.90;;;;;;;;;;5069646;28;20045;-58
2022/07/17 08:15:23;;;;;;;7.23;1.10;;;;;;;;;;5069567;28;20040;-57
2022/07/17 08:17:51;;;;;;;3.63;0.87;;;;;;;;;;5069903;28;20060;-58
2022/07/17 08:20:17;;;;;;;7.17;1.00;;;;;;;;;;5069932;28;20808;-58
2022/07/17 08:22:44;;;;;;;2.77;0.80;;;;;;;;;;5069773;28;20491;-58
2022/07/17 08:25:10;;;;;;;7.30;0.93;;;;;;;;;;5069862;28;20514;-58
2022/07/17 08:27:37;;;;;;;6.80;1.20;;;;;;;;;;5069442;28;20522;-58
2022/07/17 08:30:04;;;;;;;5.50;1.73;;;;;;;;;;5069539;28;20451;-57
2022/07/17 08:32:30;;;;;;;4.20;0.87;;;;;;;;;;5069644;28;20052;-58
2022/07/17 08:34:57;;;;;;;4.23;1.20;;;;;;;;;;5069366;28;20119;-58
2022/07/17 08:37:24;;;;;;;5.27;1.20;;;;;;;;;;5069700;28;20052;-58
2022/07/17 08:39:50;;;;;;;4.70;0.90;;;;;;;;;;5069249;28;20048;-58
2022/07/17 08:42:16;;;;;;;5.07;0.90;;;;;;;;;;5067561;28;20071;-58
2022/07/17 08:44:45;;;;;;;2.90;0.80;;;;;;;;;;5069607;28;20456;-58
2022/07/17 08:47:12;;;;;;;4.53;0.87;;;;;;;;;;5068052;28;20041;-58
2022/07/17 08:49:41;;;;;;;4.53;0.90;;;;;;;;;;5068838;28;20469;-58
2022/07/17 08:52:07;;;;;;;4.63;0.80;;;;;;;;;;5069361;28;20037;-58
2022/07/17 08:54:33;;;;;;;4.97;0.80;;;;;;;;;;5069077;28;20044;-58
2022/07/17 08:57:00;;;;;;;2.63;0.90;;;;;;;;;;5069345;28;20350;-58
2022/07/17 08:59:26;;;;;;;7.50;1.07;;;;;;;;;;5069429;28;20044;-57
2022/07/17 09:01:52;;;;;;;4.10;1.20;;;;;;;;;;5068948;28;20052;-58
2022/07/17 09:04:18;;;;;;;7.07;1.03;;;;;;;;;;5068389;28;20044;-58
2022/07/17 09:06:44;;;;;;;5.17;0.70;;;;;;;;;;5069222;28;20055;-58
2022/07/17 09:09:14;;;;;;;2.70;0.70;;;;;;;;;;5069009;28;20051;-58
2022/07/17 09:11:50;;;;;;;4.53;1.50;;;;;;;;;;5068893;28;20069;-57
2022/07/17 09:14:17;;;;;;;1.35;0.57;;;;;;;;;;5068896;28;20045;-58
2022/07/17 09:16:56;;;;;;;3.35;1.10;;;;;;;;;;5068763;28;20045;-58
2022/07/17 09:19:30;;;;;;;2.75;0.80;;;;;;;;;;5069572;28;20037;-58
2022/07/17 09:22:19;;;;;;;3.60;0.70;;;;;;;;;;5069457;28;20052;-58
2022/07/17 09:24:45;;;;;;;4.45;0.90;;;;;;;;;;5060230;28;20055;-58
2022/07/17 09:27:12;;;;;;;1.90;0.70;;;;;;;;;;5057592;28;20049;-58
2022/07/17 09:29:56;;;;;;;3.38;0.90;;;;;;;;;;5063658;28;20045;-58
2022/07/17 09:32:24;;;;;;;3.13;0.80;;;;;;;;;;5068944;28;20067;-58
2022/07/17 09:34:52;;;;;;;5.35;1.63;;;;;;;;;;5069157;28;20040;-58
2022/07/17 09:37:18;;;;;;;3.63;0.77;;;;;;;;;;5068905;28;20044;-58
2022/07/17 09:39:44;;;;;;;4.43;1.00;;;;;;;;;;5069023;28;20044;-58
2022/07/17 09:42:21;;;;;;;5.40;0.98;;;;;;;;;;5067344;28;20040;-58
2022/07/17 09:44:56;;;;;;;3.75;0.93;;;;;;;;;;5057085;28;20411;-58
2022/07/17 09:47:24;;;;;;;3.10;1.00;;;;;;;;;;5049014;28;20091;-59
2022/07/17 09:49:51;;;;;;;2.15;0.93;;;;;;;;;;5048816;28;20061;-59
2022/07/17 09:52:17;;;;;;;3.92;1.10;;;;;;;;;;5049438;28;20099;-60
2022/07/17 09:54:44;;;;;;;5.43;1.27;;;;;;;;;;5048631;28;20632;-59
2022/07/17 09:57:12;;;;;;;3.97;1.20;;;;;;;;;;5049180;28;20517;-58
2022/07/17 09:59:38;;;;;;;2.28;0.80;;;;;;;;;;5048970;28;20056;-59
2022/07/17 10:02:05;;;;;;;3.50;0.88;;;;;;;;;;5049297;28;20045;-59
2022/07/17 10:04:31;;;;;;;3.30;1.30;;;;;;;;;;5047357;28;20064;-59
2022/07/17 10:06:58;;;;;;;4.22;0.90;;;;;;;;;;5048943;28;20037;-59
2022/07/17 10:09:25;;;;;;;2.92;0.93;;;;;;;;;;5048927;28;20040;-60
2022/07/17 10:11:51;;;;;;;3.40;1.08;;;;;;;;;;5048860;28;20451;-60
2022/07/17 10:14:18;;;;;;;5.13;1.00;;;;;;;;;;5048987;28;20053;-59
2022/07/17 10:16:45;;;;;;;3.15;1.02;;;;;;;;;;5047687;28;20057;-60
2022/07/17 10:19:21;;;;;;;4.00;1.00;;;;;;;;;;5048710;28;20064;-60
2022/07/17 10:21:54;;;;;;;3.67;1.10;;;;;;;;;;5048888;28;20045;-59
2022/07/17 10:24:21;;;;;;;2.90;0.85;;;;;;;;;;5048222;28;20064;-60
2022/07/17 10:26:49;;;;;;;2.80;1.40;;;;;;;;;;5048841;28;20075;-59
2022/07/17 10:29:32;;;;;;;4.63;0.82;;;;;;;;;;5050802;28;20135;-59
2022/07/17 10:31:59;;;;;;;3.08;0.82;;;;;;;;;;5058288;28;20052;-60
2022/07/17 10:34:45;;;;;;;3.60;1.02;;;;;;;;;;5056469;28;20106;-59
2022/07/17 10:37:26;;;;;;;3.67;1.00;;;;;;;;;;5057176;28;20045;-60
2022/07/17 10:39:53;;;;;;;3.70;0.82;;;;;;;;;;5067947;28;20090;-60
2022/07/17 10:42:37;;;;;;;4.47;0.95;;;;;;;;;;5068317;28;20052;-59
2022/07/17 10:45:07;;;;;;;6.82;1.02;;;;;;;;;;5068582;28;20063;-60
2022/07/17 10:47:43;;;;;;;3.22;1.10;;;;;;;;;;5068237;28;20083;-60
2022/07/17 10:50:09;;;;;;;2.63;1.00;;;;;;;;;;5068342;28;20047;-59
2022/07/17 10:52:35;;;;;;;3.30;1.33;;;;;;;;;;5068143;28;20051;-59
2022/07/17 10:55:04;;;;;;;3.00;0.95;;;;;;;;;;5070170;28;20087;-59
2022/07/17 10:57:31;;;;;;;2.65;0.80;;;;;;;;;;5072305;28;20052;-60
2022/07/17 10:59:57;;;;;;;3.55;0.93;;;;;;;;;;5072596;28;20471;-59
2022/07/17 11:02:30;;;;;;;3.92;0.90;;;;;;;;;;5042837;28;20109;-59
2022/07/17 11:05:06;;;;;;;5.15;1.45;;;;;;;;;;5059907;28;20044;-59
2022/07/17 11:07:32;;;;;;;3.30;1.00;;;;;;;;;;5060001;28;20128;-60
2022/07/17 11:10:00;;;;;;;5.18;0.90;;;;;;;;;;5058938;28;20052;-59
2022/07/17 11:12:33;;;;;;;4.72;1.23;;;;;;;;;;5060005;28;20507;-60
2022/07/17 11:15:02;;;;;;;3.60;1.08;;;;;;;;;;5062409;28;20049;-60
2022/07/17 11:17:28;;;;;;;4.75;1.42;;;;;;;;;;5065234;28;20084;-59
2022/07/17 11:19:55;;;;;;;3.28;1.15;;;;;;;;;;5060239;28;20036;-60
2022/07/17 11:22:24;;;;;;;4.60;1.52;;;;;;;;;;5059205;28;20063;-60
2022/07/17 11:24:50;;;;;;;2.70;1.20;;;;;;;;;;5059045;28;20482;-59
2022/07/17 11:27:23;;;;;;;3.35;1.75;;;;;;;;;;5064754;28;20462;-60
2022/07/17 11:29:50;;;;;;;2.42;1.00;;;;;;;;;;5060481;28;20049;-60
2022/07/17 11:32:16;;;;;;;2.38;1.05;;;;;;;;;;5057407;28;20909;-60
2022/07/17 11:34:42;;;;;;;3.72;1.02;;;;;;;;;;5059544;28;20080;-59
2022/07/17 11:37:09;;;;;;;2.65;1.20;;;;;;;;;;5067092;28;20037;-60
2022/07/17 11:39:42;;;;;;;2.85;0.95;;;;;;;;;;5056096;28;20041;-59
2022/07/17 11:42:09;;;;;;;5.78;1.10;;;;;;;;;;5062839;28;20511;-59
2022/07/17 11:44:36;;;;;;;3.35;1.30;;;;;;;;;;5061782;28;20064;-60
2022/07/17 11:47:02;;;;;;;3.03;1.23;;;;;;;;;;5059170;28;20041;-59
2022/07/17 11:49:30;;;;;;;5.03;1.42;;;;;;;;;;5061658;28;20059;-60
2022/07/17 11:51:58;;;;;;;5.45;1.33;;;;;;;;;;5059919;28;20326;-60
2022/07/17 11:54:24;;;;;;;3.88;1.70;;;;;;;;;;5058116;28;20056;-60
2022/07/17 11:56:53;;;;;;;3.08;1.00;;;;;;;;;;5060050;28;20159;-60
2022/07/17 11:59:29;;;;;;;3.75;1.13;;;;;;;;;;5058643;28;20053;-60
2022/07/17 12:01:56;;;;;;;4.05;1.30;;;;;;;;;;5059225;28;20053;-60
2022/07/17 12:04:22;;;;;;;2.60;1.20;;;;;;;;;;5056245;28;20048;-60
2022/07/17 12:07:02;;;;;;;4.00;1.38;;;;;;;;;;5050665;28;20460;-60
2022/07/17 12:09:29;;;;;;;3.25;1.52;;;;;;;;;;5050516;28;20045;-60
2022/07/17 12:11:55;;;;;;;3.35;1.30;;;;;;;;;;5059147;28;20517;-60
2022/07/17 12:14:21;;;;;;;3.92;1.45;;;;;;;;;;5061483;28;20610;-60
2022/07/17 12:16:47;;;;;;;3.10;1.40;;;;;;;;;;5060966;28;20956;-60
2022/07/17 12:19:15;;;;;;;4.50;1.25;;;;;;;;;;5064923;28;20762;-60
2022/07/17 12:21:47;;;;;;;2.72;1.35;;;;;;;;;;5070408;28;20076;-60
2022/07/17 12:24:19;;;;;;;3.33;1.27;;;;;;;;;;5070340;28;20048;-61
2022/07/17 12:26:45;;;;;;;4.03;1.70;;;;;;;;;;5066662;28;20124;-60
2022/07/17 12:29:11;;;;;;;4.35;1.75;;;;;;;;;;5070541;28;20148;-60
2022/07/17 12:31:37;;;;;;;3.50;1.70;;;;;;;;;;5071114;28;20060;-60
2022/07/17 12:34:03;;;;;;;4.03;1.63;;;;;;;;;;5070845;28;20048;-60
2022/07/17 12:36:29;;;;;;;4.35;1.95;;;;;;;;;;5070482;28;20067;-60
2022/07/17 12:38:55;;;;;;;3.50;1.77;;;;;;;;;;5070597;28;20495;-60
2022/07/17 12:41:21;;;;;;;3.95;1.80;;;;;;;;;;5070197;28;20051;-61
2022/07/17 12:43:48;;;;;;;3.95;1.50;;;;;;;;;;5070497;28;20411;-60
2022/07/17 12:46:14;;;;;;;3.28;1.33;;;;;;;;;;5070567;28;20774;-60
2022/07/17 12:48:42;;;;;;;4.05;1.65;;;;;;;;;;5070646;28;20055;-60
2022/07/17 12:51:09;;;;;;;5.45;1.90;;;;;;;;;;5070204;28;20045;-60
2022/07/17 12:53:35;;;;;;;3.60;1.70;;;;;;;;;;5069964;28;20227;-60
2022/07/17 12:56:02;;;;;;;4.30;2.08;;;;;;;;;;5070625;28;20071;-60
2022/07/17 12:58:29;;;;;;;4.40;1.60;;;;;;;;;;5070249;28;20052;-60
2022/07/17 13:00:55;;;;;;;3.60;1.95;;;;;;;;;;5070234;28;20806;-60
2022/07/17 13:03:21;;;;;;;4.22;2.00;;;;;;;;;;5070166;28;20045;-60
2022/07/17 13:05:47;;;;;;;3.70;1.85;;;;;;;;;;5069836;28;20057;-60
2022/07/17 13:08:13;;;;;;;3.83;1.55;;;;;;;;;;5070258;28;20049;-60
2022/07/17 13:10:39;;;;;;;5.40;1.63;;;;;;;;;;5070093;28;20045;-60
2022/07/17 13:13:06;;;;;;;4.38;2.00;;;;;;;;;;5069672;28;20071;-60
2022/07/17 13:15:32;;;;;;;7.47;1.85;;;;;;;;;;5069626;28;20151;-60
2022/07/17 13:18:00;;;;;;;4.22;1.60;;;;;;;;;;5068841;28;20129;-61
2022/07/17 13:20:26;;;;;;;4.88;1.65;;;;;;;;;;5069425;28;20451;-60
2022/07/17 13:22:52;;;;;;;4.47;1.70;;;;;;;;;;5069604;28;20053;-60
2022/07/17 13:25:18;;;;;;;4.35;1.85;;;;;;;;;;5068896;28;20045;-60
2022/07/17 13:27:44;;;;;;;3.63;1.83;;;;;;;;;;5069657;28;20048;-60
2022/07/17 13:30:10;;;;;;;4.72;1.80;;;;;;;;;;5069842;28;20454;-60
2022/07/17 13:32:37;;;;;;;4.88;2.17;;;;;;;;;;5069779;28;20056;-60
2022/07/17 13:35:03;;;;;;;3.15;1.50;;;;;;;;;;5069763;28;20955;-60
2022/07/17 13:37:29;;;;;;;5.30;1.63;;;;;;;;;;5069132;28;20052;-60
2022/07/17 13:39:55;;;;;;;3.72;1.90;;;;;;;;;;5069343;28;20048;-60
2022/07/17 13:42:21;;;;;;;2.70;1.58;;;;;;;;;;5069206;28;20056;-60
2022/07/17 13:44:47;;;;;;;3.38;1.70;;;;;;;;;;5069315;28;20049;-60
2022/07/17 13:47:13;;;;;;;4.82;1.50;;;;;;;;;;5068911;28;20413;-60
2022/07/17 13:49:39;;;;;;;3.75;1.67;;;;;;;;;;5069277;28;20047;-60
2022/07/17 13:52:05;;;;;;;4.90;2.03;;;;;;;;;;5068828;28;21035;-60
2022/07/17 13:54:31;;;;;;;6.05;1.77;;;;;;;;;;5068869;28;20084;-60
2022/07/17 13:56:59;;;;;;;4.95;1.85;;;;;;;;;;5069033;28;20518;-60
2022/07/17 13:59:25;;;;;;;4.88;1.60;;;;;;;;;;5068575;28;20048;-61
2022/07/17 14:01:51;;;;;;;5.10;2.00;;;;;;;;;;5068894;28;20044;-60
2022/07/17 14:04:17;;;;;;;3.17;1.80;;;;;;;;;;5068692;28;20036;-60
2022/07/17 14:06:43;;;;;;;4.10;1.55;;;;;;;;;;5069323;28;20048;-60
2022/07/17 14:09:10;;;;;;;4.38;1.80;;;;;;;;;;5068489;28;20414;-60
2022/07/17 14:11:36;;;;;;;5.43;2.15;;;;;;;;;;5068794;28;20084;-60
2022/07/17 14:14:03;;;;;;;6.72;2.35;;;;;;;;;;5068529;28;20043;-60
2022/07/17 14:16:29;;;;;;;4.30;1.65;;;;;;;;;;5068630;28;20048;-60
2022/07/17 14:18:58;;;;;;;4.75;2.10;;;;;;;;;;5067981;28;20144;-60
2022/07/17 14:21:24;;;;;;;4.10;2.40;;;;;;;;;;5068447;28;20514;-60
2022/07/17 14:23:50;;;;;;;6.90;2.13;;;;;;;;;;5068285;28;20418;-61
2022/07/17 14:26:16;;;;;;;4.88;2.25;;;;;;;;;;5068577;28;20048;-60
2022/07/17 14:28:42;;;;;;;5.43;2.22;;;;;;;;;;5067862;28;20056;-60
2022/07/17 14:31:08;;;;;;;4.95;2.00;;;;;;;;;;5068280;28;20041;-60
2022/07/17 14:33:34;;;;;;;3.97;2.00;;;;;;;;;;5068666;28;20052;-60
2022/07/17 14:36:00;;;;;;;3.13;1.83;;;;;;;;;;5068420;28;20110;-60
2022/07/17 14:38:26;;;;;;;3.75;1.95;;;;;;;;;;5068057;28;20048;-60